Time;durP1;ratioP1;P1;durP2;ratioP2;P2;SDS_P1;SDS_P2;PMS_P1;PMS_P2;Temp;Humidity;BMP_temperature;BMP_pressure;BME280_temperature;BME280_humidity;BME280_pressure;Samples;Min_cycle;Max_cycle;Signal;HPM_P1;HPM_P2
2022/08/20 00:03:02;;;;;;;12.82;8.95;;;;;;;21.24;76.79;99719.50;2117839;83;21014;-87
2022/08/20 00:06:15;;;;;;;14.07;8.93;;;;;;;21.10;77.09;99728.18;2109235;84;21033;-89
2022/08/20 00:09:16;;;;;;;13.65;9.75;;;;;;;21.07;77.31;99725.98;2107132;83;21132;-88
2022/08/20 00:12:17;;;;;;;13.13;9.45;;;;;;;21.10;77.40;99737.62;2082321;84;21029;-86
2022/08/20 00:15:23;;;;;;;14.75;9.78;;;;;;;21.09;77.48;99750.80;2110622;83;21045;-89
2022/08/20 00:18:25;;;;;;;14.68;10.03;;;;;;;21.02;77.89;99742.34;2116821;84;21045;-87
2022/08/20 00:21:27;;;;;;;16.30;9.60;;;;;;;20.91;78.07;99735.69;2109847;83;21037;-86
2022/08/20 00:24:28;;;;;;;14.28;10.13;;;;;;;20.91;78.23;99732.98;2115924;83;21080;-88
2022/08/20 00:27:30;;;;;;;13.80;9.85;;;;;;;20.96;78.32;99728.50;2117100;83;21034;-85
2022/08/20 00:30:32;;;;;;;18.17;9.50;;;;;;;21.03;78.32;99735.91;2119942;83;21068;-87
2022/08/20 00:33:33;;;;;;;12.73;9.78;;;;;;;21.04;78.26;99736.19;2111122;83;21033;-87
2022/08/20 00:36:34;;;;;;;18.98;11.05;;;;;;;21.01;78.23;99744.77;2113074;83;21020;-86
2022/08/20 00:39:35;;;;;;;14.87;10.50;;;;;;;21.01;78.37;99743.42;2106404;83;21011;-88
2022/08/20 00:42:41;;;;;;;21.70;10.43;;;;;;;20.94;78.32;99730.61;2110447;83;21609;-84
2022/08/20 00:45:42;;;;;;;15.63;10.30;;;;;;;20.90;78.40;99736.22;2110685;83;21550;-86
2022/08/20 00:48:48;;;;;;;13.50;10.48;;;;;;;20.87;78.57;99744.80;2105510;83;21045;-87
2022/08/20 00:52:06;;;;;;;15.25;11.03;;;;;;;20.75;78.84;99751.61;2116466;84;21507;-87
2022/08/20 00:55:09;;;;;;;15.78;11.03;;;;;;;20.67;79.10;99752.53;2114335;83;21583;-88
2022/08/20 00:58:10;;;;;;;18.50;11.73;;;;;;;20.56;79.46;99746.94;2075367;84;21073;-87
2022/08/20 01:01:11;;;;;;;17.75;10.60;;;;;;;20.49;79.46;99751.61;2113565;82;20992;-87
2022/08/20 01:04:12;;;;;;;15.88;10.23;;;;;;;20.42;79.56;99753.66;2098515;83;21038;-87
2022/08/20 01:07:13;;;;;;;18.92;10.38;;;;;;;20.37;79.74;99759.75;2092482;83;21514;-87
2022/08/20 01:10:23;;;;;;;20.35;10.00;;;;;;;20.32;79.92;99760.99;2117106;82;21065;-88
2022/08/20 01:13:24;;;;;;;15.60;11.50;;;;;;;20.23;80.12;99758.39;2103291;83;21086;-87
2022/08/20 01:16:30;;;;;;;17.00;10.55;;;;;;;20.21;80.22;99774.50;2117386;82;21586;-88
2022/08/20 01:19:39;;;;;;;18.20;11.35;;;;;;;20.19;80.45;99770.72;2122522;82;21079;-88
2022/08/20 01:26:17;;;;;;;12.63;9.88;;;;;;;20.12;80.61;99754.67;2103633;82;21029;-88
2022/08/20 01:29:23;;;;;;;14.68;10.15;;;;;;;20.13;80.78;99738.82;2090802;84;21104;-86
2022/08/20 01:32:24;;;;;;;16.02;10.08;;;;;;;20.17;80.71;99715.45;2103166;84;21054;-88
2022/08/20 01:35:27;;;;;;;14.75;10.15;;;;;;;20.19;80.55;99720.88;2111812;82;21009;-87
2022/08/20 01:38:29;;;;;;;22.45;10.90;;;;;;;20.17;80.45;99708.17;2113565;83;21893;-88
2022/08/20 01:41:50;;;;;;;15.45;9.83;;;;;;;20.19;80.56;99703.87;2086749;83;21520;-86
2022/08/20 01:44:51;;;;;;;19.98;10.10;;;;;;;20.21;80.49;99703.13;2075320;84;21113;-87
2022/08/20 01:47:52;;;;;;;17.50;10.00;;;;;;;20.23;80.36;99701.02;2129699;82;21518;-87
2022/08/20 01:51:12;;;;;;;18.52;10.65;;;;;;;20.23;80.18;99696.44;2115020;82;21088;-87
2022/08/20 01:54:13;;;;;;;23.65;10.60;;;;;;;20.21;80.10;99693.16;2100144;83;21033;-88
2022/08/20 01:57:18;;;;;;;21.62;11.05;;;;;;;20.12;79.98;99708.07;2098729;82;21014;-87
2022/08/20 02:00:21;;;;;;;19.48;10.48;;;;;;;20.11;80.13;99705.09;2107448;82;21081;-88
2022/08/20 02:03:23;;;;;;;16.87;10.05;;;;;;;20.08;80.15;99702.35;2113927;82;21071;-87
2022/08/20 02:06:26;;;;;;;14.87;9.98;;;;;;;20.08;80.12;99705.05;2090063;84;21057;-88
2022/08/20 02:09:31;;;;;;;20.25;10.85;;;;;;;20.09;80.13;99712.06;2114717;82;20994;-86
2022/08/20 02:12:34;;;;;;;16.97;9.95;;;;;;;20.12;80.29;99724.23;2120361;82;21530;-88
2022/08/20 02:15:36;;;;;;;17.12;9.93;;;;;;;20.06;80.23;99727.34;2120180;82;21839;-88
2022/08/20 02:18:38;;;;;;;19.05;9.25;;;;;;;20.02;80.26;99716.78;2126838;82;21046;-88
2022/08/20 02:21:44;;;;;;;17.12;10.43;;;;;;;20.02;80.08;99721.32;2112538;83;21057;-87
2022/08/20 02:24:45;;;;;;;18.25;10.05;;;;;;;20.02;80.21;99718.63;2093755;82;21036;-87
2022/08/20 02:27:48;;;;;;;15.75;9.18;;;;;;;20.00;80.26;99705.42;2084240;84;21010;-89
2022/08/20 02:30:54;;;;;;;13.98;9.85;;;;;;;19.99;80.14;99705.64;2089996;84;21017;-87
2022/08/20 02:33:54;;;;;;;15.15;9.43;;;;;;;19.95;80.05;99695.08;2119603;82;21036;-87
2022/08/20 02:36:56;;;;;;;18.82;9.63;;;;;;;19.92;80.30;99687.75;2086225;84;21010;-88
2022/08/20 02:39:57;;;;;;;14.55;8.65;;;;;;;19.94;80.40;99675.41;2125385;81;21542;-88
2022/08/20 02:43:00;;;;;;;19.65;10.00;;;;;;;19.96;80.22;99673.28;2111931;82;21542;-88
2022/08/20 02:46:01;;;;;;;13.93;9.80;;;;;;;19.95;80.32;99661.42;2093716;83;21037;-88
2022/08/20 02:49:03;;;;;;;10.50;8.45;;;;;;;19.95;80.28;99656.84;2117509;82;20993;-87
2022/08/20 02:52:04;;;;;;;17.10;8.80;;;;;;;19.95;80.42;99656.03;2104479;82;21053;-88
2022/08/20 02:55:06;;;;;;;17.50;9.65;;;;;;;19.95;80.36;99650.11;2108346;82;20964;-89
2022/08/20 02:58:07;;;;;;;14.18;9.68;;;;;;;19.91;80.24;99651.13;2116435;82;21060;-88
2022/08/20 03:01:13;;;;;;;21.25;10.45;;;;;;;19.90;80.26;99645.44;2108938;82;20989;-88
2022/08/20 03:04:14;;;;;;;18.52;10.23;;;;;;;19.83;80.31;99642.08;2089105;83;21529;-89
2022/08/20 03:07:15;;;;;;;16.57;9.60;;;;;;;19.76;80.50;99633.84;2096305;83;21127;-86
2022/08/20 03:10:16;;;;;;;16.70;9.50;;;;;;;19.54;80.65;99612.95;2105555;83;21006;-90
2022/08/20 03:13:19;;;;;;;14.13;8.93;;;;;;;19.63;80.80;99634.92;2114522;82;21017;-90
2022/08/20 03:16:20;;;;;;;13.93;9.03;;;;;;;19.64;80.82;99633.31;2114927;82;21006;-87
2022/08/20 03:19:21;;;;;;;18.35;10.05;;;;;;;19.62;80.88;99625.19;2120001;82;21024;-88
2022/08/20 03:22:22;;;;;;;12.55;9.10;;;;;;;19.58;80.98;99625.39;2079950;83;21511;-88
2022/08/20 03:25:24;;;;;;;12.43;9.00;;;;;;;19.58;81.01;99634.27;2116664;82;21097;-88
2022/08/20 03:28:27;;;;;;;14.83;8.35;;;;;;;19.60;81.14;99646.97;2115457;83;21551;-87
2022/08/20 03:31:29;;;;;;;14.63;9.25;;;;;;;19.63;81.01;99665.33;2115476;83;21044;-88
2022/08/20 03:34:31;;;;;;;23.32;10.60;;;;;;;19.65;81.15;99683.45;2118020;83;21039;-87
2022/08/20 03:37:34;;;;;;;13.68;9.63;;;;;;;19.70;81.13;99702.38;2108242;83;21721;-87
2022/08/20 03:40:37;;;;;;;16.00;10.38;;;;;;;19.65;81.06;99713.05;2104602;83;20990;-87
2022/08/20 03:43:39;;;;;;;16.40;10.20;;;;;;;19.60;81.30;99713.44;2107484;83;21016;-87
2022/08/20 03:46:41;;;;;;;19.23;10.48;;;;;;;19.59;81.46;99715.28;2111952;83;21084;-88
2022/08/20 03:49:42;;;;;;;14.18;9.75;;;;;;;19.58;81.53;99710.97;2089275;84;21050;-89
2022/08/20 03:52:43;;;;;;;13.48;9.50;;;;;;;19.60;81.55;99708.86;2122003;83;21062;-88
2022/08/20 03:55:47;;;;;;;14.85;9.28;;;;;;;19.61;81.50;99710.48;2118031;83;21007;-88
2022/08/20 03:58:48;;;;;;;18.52;10.10;;;;;;;19.60;81.49;99700.80;2113432;83;21116;-89
2022/08/20 04:01:49;;;;;;;16.62;10.03;;;;;;;19.59;81.56;99700.48;2107905;83;21066;-88
2022/08/20 04:04:50;;;;;;;16.77;9.85;;;;;;;19.53;81.50;99682.59;2107658;83;21511;-88
2022/08/20 04:07:51;;;;;;;18.25;10.05;;;;;;;19.53;81.98;99673.70;2116889;83;21057;-87
2022/08/20 04:10:56;;;;;;;12.60;9.68;;;;;;;19.66;82.25;99671.61;2093212;84;21069;-87
2022/08/20 04:13:57;;;;;;;16.10;10.00;;;;;;;19.80;82.08;99678.91;2107316;84;21049;-88
2022/08/20 04:16:58;;;;;;;22.07;11.12;;;;;;;19.81;81.62;99693.17;2100222;83;21101;-89
2022/08/20 04:20:04;;;;;;;20.75;10.55;;;;;;;19.85;81.84;99702.40;2087458;83;21084;-88
2022/08/20 04:23:07;;;;;;;17.70;11.22;;;;;;;19.86;81.74;99718.33;2116649;83;21072;-90
2022/08/20 04:26:08;;;;;;;19.23;10.85;;;;;;;19.79;81.73;99716.81;2119075;83;21025;-88
2022/08/20 04:29:09;;;;;;;17.60;10.43;;;;;;;19.75;82.00;99716.47;2092682;84;21032;-89
2022/08/20 04:32:11;;;;;;;16.65;11.33;;;;;;;19.78;82.12;99721.38;2111007;84;21138;-88
2022/08/20 04:35:14;;;;;;;15.78;10.28;;;;;;;19.80;81.99;99723.31;2109042;83;21105;-90
2022/08/20 04:38:18;;;;;;;19.05;9.95;;;;;;;19.83;81.98;99716.11;2111053;84;21017;-89
2022/08/20 04:41:21;;;;;;;16.75;10.05;;;;;;;19.84;81.71;99721.77;2111209;83;21079;-89
2022/08/20 04:44:22;;;;;;;13.18;10.53;;;;;;;19.83;81.73;99723.38;2079125;84;21018;-90
2022/08/20 04:47:23;;;;;;;15.23;9.25;;;;;;;19.84;81.78;99722.31;2106834;83;21050;-91
2022/08/20 04:50:25;;;;;;;16.97;9.88;;;;;;;19.90;81.71;99724.05;2112817;83;21070;-88
2022/08/20 04:53:27;;;;;;;17.82;9.68;;;;;;;19.95;81.60;99730.89;2070250;83;21037;-89
2022/08/20 04:56:31;;;;;;;13.05;9.40;;;;;;;19.99;81.57;99722.64;2114922;83;21640;-90
2022/08/20 04:59:33;;;;;;;20.32;10.38;;;;;;;20.02;81.54;99711.39;2079744;83;21052;-91
2022/08/20 05:02:34;;;;;;;14.73;9.68;;;;;;;20.00;81.53;99706.77;2084177;84;21065;-91
2022/08/20 05:05:35;;;;;;;14.03;10.63;;;;;;;20.01;81.67;99709.73;2111410;84;21547;-91
2022/08/20 05:08:37;;;;;;;14.65;10.43;;;;;;;20.08;81.83;99715.00;2113897;82;21006;-90
2022/08/20 05:11:39;;;;;;;18.40;9.98;;;;;;;20.12;81.83;99706.19;2111924;81;21024;-90
2022/08/20 05:14:41;;;;;;;18.60;10.93;;;;;;;20.15;81.90;99698.98;2108181;83;20990;-91
2022/08/20 05:17:43;;;;;;;17.32;11.08;;;;;;;20.18;81.98;99689.60;2126634;82;21018;-89
2022/08/20 05:20:46;;;;;;;20.40;10.75;;;;;;;20.22;82.03;99700.20;2129414;82;21769;-91
2022/08/20 05:23:48;;;;;;;17.32;11.10;;;;;;;20.28;82.04;99688.45;2109442;84;21526;-91
2022/08/20 05:26:49;;;;;;;16.90;11.20;;;;;;;20.33;82.04;99691.25;2098349;83;21093;-90
2022/08/20 05:29:52;;;;;;;20.37;10.95;;;;;;;20.38;82.02;99686.47;2111938;83;21088;-90
2022/08/20 05:32:53;;;;;;;14.98;10.80;;;;;;;20.40;81.93;99695.67;2110645;83;21571;-89
2022/08/20 05:35:56;;;;;;;19.50;11.15;;;;;;;20.44;81.91;99700.34;2112699;83;21576;-89
2022/08/20 05:38:57;;;;;;;25.50;12.45;;;;;;;20.45;81.79;99706.02;2115201;83;20997;-89
2022/08/20 05:41:58;;;;;;;17.70;11.50;;;;;;;20.47;81.76;99705.25;2099572;83;21551;-89
2022/08/20 05:45:00;;;;;;;22.50;13.22;;;;;;;20.50;81.78;99710.69;2092364;84;21013;-89
2022/08/20 05:48:13;;;;;;;20.68;11.22;;;;;;;20.51;81.94;99708.27;2088860;84;21103;-90
2022/08/20 05:51:14;;;;;;;20.80;11.40;;;;;;;20.56;81.94;99697.09;2080553;84;21057;-90
2022/08/20 05:54:16;;;;;;;18.40;11.55;;;;;;;20.62;82.04;99699.88;2120483;82;21069;-88
2022/08/20 05:57:21;;;;;;;16.73;11.30;;;;;;;20.75;82.12;99703.59;2111203;82;20998;-88
2022/08/20 06:00:22;;;;;;;22.27;10.55;;;;;;;20.88;81.97;99707.33;2115714;82;21533;-91
2022/08/20 06:06:44;;;;;;;21.12;11.75;;;;;;;21.34;81.93;99699.13;2107396;82;21093;-90
2022/08/20 06:09:46;;;;;;;15.32;10.35;;;;;;;21.72;81.68;99688.89;2065136;84;21011;-89
2022/08/20 06:12:47;;;;;;;14.35;9.63;;;;;;;22.11;81.47;99682.08;2119222;82;21056;-87
2022/08/20 06:15:48;;;;;;;22.27;10.55;;;;;;;22.43;80.70;99680.81;2116862;82;21056;-89
2022/08/20 06:18:50;;;;;;;14.70;9.25;;;;;;;22.70;80.15;99691.62;2106979;84;21071;-92
2022/08/20 06:21:51;;;;;;;16.35;9.65;;;;;;;22.94;79.64;99695.32;2118135;82;21017;-90
2022/08/20 06:24:52;;;;;;;13.48;9.53;;;;;;;23.24;79.06;99695.58;2116904;82;21538;-89
2022/08/20 06:27:53;;;;;;;16.73;10.50;;;;;;;23.48;78.50;99691.95;2115517;82;21049;-86
2022/08/20 06:30:56;;;;;;;16.55;9.85;;;;;;;23.69;77.86;99695.57;2114082;82;21061;-88
2022/08/20 06:33:57;;;;;;;18.82;10.15;;;;;;;23.91;77.27;99693.27;2117979;82;21092;-87
2022/08/20 06:36:58;;;;;;;13.75;9.33;;;;;;;23.89;76.29;99699.48;2091335;82;21018;-88
2022/08/20 06:40:07;;;;;;;14.90;9.20;;;;;;;23.84;76.25;99699.45;2081851;83;21028;-88
2022/08/20 06:43:08;;;;;;;20.55;9.75;;;;;;;23.94;76.02;99705.73;2114610;82;21511;-89
2022/08/20 06:46:10;;;;;;;13.18;9.78;;;;;;;24.11;75.77;99700.11;2114913;82;21053;-88
2022/08/20 06:49:12;;;;;;;17.35;10.08;;;;;;;24.26;75.58;99697.98;2089398;83;21039;-92
2022/08/20 06:52:15;;;;;;;16.77;9.98;;;;;;;24.34;74.88;99704.23;2077191;84;21069;-87
2022/08/20 06:55:17;;;;;;;20.52;10.85;;;;;;;24.34;74.64;99706.95;2116756;82;21530;-89
2022/08/20 06:58:19;;;;;;;21.15;11.73;;;;;;;24.53;74.81;99714.62;2126536;82;21029;-89
2022/08/20 07:01:21;;;;;;;23.05;13.88;;;;;;;24.52;73.83;99717.04;2104137;83;21061;-88
2022/08/20 07:04:24;;;;;;;35.38;25.37;;;;;;;24.43;73.89;99718.11;2116734;82;21029;-89
2022/08/20 07:07:26;;;;;;;38.08;30.52;;;;;;;24.34;73.46;99711.02;2119084;82;21556;-87
2022/08/20 07:10:29;;;;;;;45.50;33.10;;;;;;;24.21;73.33;99715.58;2133211;82;21025;-88
2022/08/20 07:13:30;;;;;;;41.25;32.80;;;;;;;24.04;72.97;99714.44;2131831;82;21137;-88
2022/08/20 07:16:31;;;;;;;39.55;30.43;;;;;;;23.89;72.82;99718.45;2119072;82;21016;-88
2022/08/20 07:19:33;;;;;;;41.95;32.03;;;;;;;23.81;73.24;99723.83;2082192;83;21046;-89
2022/08/20 07:22:35;;;;;;;35.92;28.47;;;;;;;23.82;73.26;99725.98;2107813;82;21093;-88
2022/08/20 07:25:40;;;;;;;36.80;28.92;;;;;;;23.74;73.06;99724.62;2079176;84;21052;-88
2022/08/20 07:28:42;;;;;;;41.37;29.67;;;;;;;23.63;72.99;99722.36;2117842;82;21029;-87
2022/08/20 07:35:08;;;;;;;38.00;30.30;;;;;;;23.44;73.50;99723.31;2095361;83;21022;-88
2022/08/20 07:38:23;;;;;;;38.05;29.60;;;;;;;23.35;73.36;99729.49;2113462;82;21555;-88
2022/08/20 07:41:24;;;;;;;34.18;28.15;;;;;;;23.33;73.54;99731.64;2118062;82;21096;-88
2022/08/20 07:44:25;;;;;;;38.80;29.37;;;;;;;23.41;73.62;99727.91;2088168;84;21077;-88
2022/08/20 07:47:26;;;;;;;35.33;29.40;;;;;;;23.51;73.45;99738.00;2117180;83;21057;-87
2022/08/20 07:50:28;;;;;;;33.88;27.42;;;;;;;23.55;73.37;99739.09;2120842;83;21034;-89
2022/08/20 07:53:34;;;;;;;42.80;30.72;;;;;;;23.53;73.21;99740.43;2115148;83;21049;-87
2022/08/20 07:56:35;;;;;;;42.70;30.12;;;;;;;23.53;72.98;99741.24;2083599;83;21001;-88
2022/08/20 07:59:37;;;;;;;45.73;29.57;;;;;;;23.53;73.15;99745.30;2117561;82;21021;-89
2022/08/20 08:02:38;;;;;;;36.45;27.62;;;;;;;23.59;72.79;99744.25;2117992;83;21064;-91
2022/08/20 08:05:46;;;;;;;33.88;28.70;;;;;;;23.60;73.07;99743.73;2116104;84;21041;-90
2022/08/20 08:08:48;;;;;;;34.65;30.12;;;;;;;23.73;73.16;99742.47;2120957;83;21148;-88
2022/08/20 08:11:50;;;;;;;40.08;31.68;;;;;;;23.80;72.70;99751.19;2113003;83;21029;-90
2022/08/20 08:14:54;;;;;;;37.05;30.27;;;;;;;23.85;72.83;99750.68;2117796;83;21093;-89
2022/08/20 08:18:04;;;;;;;38.67;32.15;;;;;;;23.88;72.52;99757.47;2124199;83;21045;-89
2022/08/20 08:21:07;;;;;;;38.50;30.62;;;;;;;23.90;72.35;99762.06;2114330;83;21077;-90
2022/08/20 08:24:09;;;;;;;39.40;28.87;;;;;;;23.92;72.14;99772.10;2113438;83;21093;-89
2022/08/20 08:27:11;;;;;;;37.25;30.77;;;;;;;23.90;72.38;99765.58;2117705;83;21458;-88
2022/08/20 08:30:13;;;;;;;36.65;29.10;;;;;;;23.96;72.45;99765.61;2114361;83;21041;-89
2022/08/20 08:33:27;;;;;;;36.55;28.12;;;;;;;23.96;72.08;99769.13;2123652;83;21591;-88
2022/08/20 08:36:29;;;;;;;36.60;28.60;;;;;;;24.04;72.21;99776.76;2114662;84;21109;-87
2022/08/20 08:39:32;;;;;;;41.00;30.52;;;;;;;24.29;72.15;99775.24;2118015;83;21122;-92
2022/08/20 08:42:44;;;;;;;37.65;29.80;;;;;;;24.49;71.59;99774.53;2115259;82;21097;-88
2022/08/20 08:45:51;;;;;;;33.23;29.07;;;;;;;24.68;71.26;99771.59;2118634;82;21076;-89
2022/08/20 08:48:57;;;;;;;35.10;29.50;;;;;;;24.78;70.81;99768.91;2118885;82;21040;-90
2022/08/20 08:52:03;;;;;;;38.58;29.07;;;;;;;24.74;70.42;99765.09;2122650;82;21175;-91
2022/08/20 08:55:10;;;;;;;33.83;26.50;;;;;;;24.75;70.49;99760.47;2119380;82;21026;-88
2022/08/20 08:58:11;;;;;;;30.90;26.50;;;;;;;25.02;70.50;99754.81;2111468;82;21114;-88
2022/08/20 09:01:17;;;;;;;32.20;26.57;;;;;;;25.16;69.84;99753.75;2120952;82;21085;-88
2022/08/20 09:04:21;;;;;;;32.58;26.07;;;;;;;25.15;69.09;99750.78;2115095;82;21537;-90
2022/08/20 09:07:25;;;;;;;31.73;26.73;;;;;;;25.16;69.33;99759.19;2075683;84;21104;-91
2022/08/20 09:10:27;;;;;;;36.50;27.20;;;;;;;25.16;69.17;99756.47;2111657;82;21124;-89
2022/08/20 09:13:28;;;;;;;32.78;27.62;;;;;;;25.17;68.93;99764.87;2081408;83;21009;-89
2022/08/20 09:16:29;;;;;;;35.35;27.65;;;;;;;25.25;68.78;99767.05;2091426;82;21097;-89
2022/08/20 09:19:30;;;;;;;32.00;26.73;;;;;;;25.25;68.48;99758.91;2093670;84;21025;-88
2022/08/20 09:22:32;;;;;;;35.20;26.50;;;;;;;25.24;68.47;99756.73;2091785;84;21037;-90
2022/08/20 09:25:33;;;;;;;30.12;24.57;;;;;;;25.25;68.55;99761.07;2111935;82;21073;-90
2022/08/20 09:28:35;;;;;;;33.95;25.65;;;;;;;25.37;68.45;99757.26;2123707;82;21503;-90
2022/08/20 09:31:36;;;;;;;31.07;25.00;;;;;;;25.38;68.15;99757.00;2081768;83;21045;-88
2022/08/20 09:34:42;;;;;;;29.98;25.25;;;;;;;25.41;68.17;99761.08;2118185;83;21030;-88
2022/08/20 09:37:45;;;;;;;30.88;26.20;;;;;;;25.41;68.05;99761.88;2110961;83;21110;-89
2022/08/20 09:40:46;;;;;;;30.12;24.92;;;;;;;25.46;67.87;99760.52;2097287;83;21066;-90
2022/08/20 09:43:48;;;;;;;32.55;24.65;;;;;;;25.47;67.44;99756.70;2114919;83;21074;-89
2022/08/20 09:46:49;;;;;;;35.13;25.35;;;;;;;25.52;67.46;99749.11;2120432;82;21025;-89
2022/08/20 09:49:50;;;;;;;26.23;23.02;;;;;;;25.61;67.22;99754.23;2106005;83;21033;-89
2022/08/20 09:52:53;;;;;;;30.10;24.02;;;;;;;25.87;67.28;99754.20;2075079;84;21080;-89
2022/08/20 09:55:56;;;;;;;34.70;25.20;;;;;;;25.99;66.60;99764.76;2077773;84;21025;-90
2022/08/20 09:58:57;;;;;;;34.25;23.75;;;;;;;26.02;66.42;99765.59;2106484;83;21032;-90
2022/08/20 10:01:58;;;;;;;28.32;23.47;;;;;;;26.19;65.56;99759.26;2112992;83;21443;-90
2022/08/20 10:05:00;;;;;;;29.90;23.95;;;;;;;26.19;65.89;99751.66;2113796;82;21105;-89
2022/08/20 10:08:08;;;;;;;28.73;23.15;;;;;;;26.28;65.62;99756.22;2110946;82;21065;-89
2022/08/20 10:11:09;;;;;;;27.58;23.02;;;;;;;26.30;65.10;99754.05;2075362;84;21652;-89
2022/08/20 10:14:11;;;;;;;28.32;21.87;;;;;;;26.38;64.89;99756.18;2079906;84;21045;-90
2022/08/20 10:17:12;;;;;;;28.83;23.57;;;;;;;26.43;64.81;99759.95;2125457;82;21002;-89
2022/08/20 10:20:13;;;;;;;28.10;22.90;;;;;;;26.42;64.54;99765.13;2120006;82;21044;-88
2022/08/20 10:23:15;;;;;;;26.05;23.10;;;;;;;26.42;64.30;99753.70;2082527;84;21199;-89
2022/08/20 10:26:16;;;;;;;35.08;24.80;;;;;;;26.45;64.32;99766.73;2096630;83;21028;-89
2022/08/20 10:29:17;;;;;;;29.65;24.15;;;;;;;26.46;63.97;99767.55;2114416;82;21050;-89
2022/08/20 10:32:18;;;;;;;30.77;24.77;;;;;;;26.35;63.45;99770.31;2109018;83;21041;-91
2022/08/20 10:35:19;;;;;;;30.52;24.95;;;;;;;26.17;63.67;99765.52;2087885;84;21061;-90
2022/08/20 10:38:20;;;;;;;27.52;23.18;;;;;;;26.08;63.63;99766.64;2120401;82;21072;-90
2022/08/20 10:41:21;;;;;;;27.93;24.92;;;;;;;26.03;63.88;99768.02;2121522;82;21460;-88
2022/08/20 10:44:23;;;;;;;32.13;23.73;;;;;;;25.99;63.65;99762.03;2088247;84;21069;-88
2022/08/20 10:47:32;;;;;;;28.00;22.15;;;;;;;25.91;63.78;99766.97;2094873;83;20988;-87
2022/08/20 10:50:33;;;;;;;27.70;24.63;;;;;;;25.86;64.05;99778.41;2070805;84;21073;-89
2022/08/20 10:53:34;;;;;;;30.12;23.47;;;;;;;25.64;63.63;99783.57;2113070;82;21041;-90
2022/08/20 10:56:35;;;;;;;30.27;24.37;;;;;;;25.49;64.22;99778.98;2085945;84;21062;-89
2022/08/20 10:59:42;;;;;;;26.35;23.07;;;;;;;25.41;64.17;99784.16;2108505;83;21040;-89
2022/08/20 11:02:43;;;;;;;28.70;24.23;;;;;;;25.45;64.56;99787.42;2118397;83;20990;-89
2022/08/20 11:05:46;;;;;;;34.10;23.40;;;;;;;25.51;64.38;99781.44;2094878;83;21017;-88
2022/08/20 11:08:47;;;;;;;30.60;23.05;;;;;;;25.61;64.64;99779.23;2111813;83;21080;-88
2022/08/20 11:11:48;;;;;;;29.18;24.20;;;;;;;25.70;64.61;99772.95;2106295;83;20985;-88
2022/08/20 11:14:50;;;;;;;27.13;23.47;;;;;;;25.71;64.19;99771.89;2113555;83;21065;-90
2022/08/20 11:17:51;;;;;;;29.10;22.40;;;;;;;25.69;63.96;99780.85;2113956;84;21087;-89
2022/08/20 11:20:53;;;;;;;27.58;23.32;;;;;;;25.60;64.01;99780.34;2122087;83;21072;-91
2022/08/20 11:23:54;;;;;;;32.95;23.22;;;;;;;25.54;64.45;99780.05;2113192;83;20993;-88
2022/08/20 11:26:55;;;;;;;30.25;23.70;;;;;;;25.48;64.37;99776.53;2107705;83;21109;-89
2022/08/20 11:29:57;;;;;;;28.67;24.60;;;;;;;25.41;64.32;99774.10;2106714;82;21097;-89
2022/08/20 11:32:59;;;;;;;31.87;23.25;;;;;;;25.47;64.44;99770.84;2086030;84;21333;-88
2022/08/20 11:36:01;;;;;;;29.37;24.07;;;;;;;25.49;64.54;99768.12;2075035;84;21527;-90
2022/08/20 11:39:03;;;;;;;25.32;22.67;;;;;;;25.43;64.37;99768.41;2103395;83;20998;-90
2022/08/20 11:42:05;;;;;;;27.95;22.77;;;;;;;25.46;64.82;99767.86;2121058;82;21049;-88
2022/08/20 11:45:07;;;;;;;30.10;24.15;;;;;;;25.54;64.61;99765.95;2091063;82;21503;-88
2022/08/20 11:48:08;;;;;;;32.70;23.40;;;;;;;25.65;64.10;99766.72;2120489;82;21487;-89
2022/08/20 11:51:10;;;;;;;26.17;22.52;;;;;;;25.74;63.92;99766.45;2116605;82;21532;-89
2022/08/20 11:54:11;;;;;;;28.02;19.82;;;;;;;25.97;64.58;99751.46;2110736;82;21064;-89
2022/08/20 11:57:12;;;;;;;23.35;20.27;;;;;;;26.12;63.72;99747.86;2119817;82;22166;-89
2022/08/20 12:00:22;;;;;;;27.52;19.82;;;;;;;26.15;63.21;99747.30;2111773;82;21596;-90
2022/08/20 12:03:24;;;;;;;22.05;17.42;;;;;;;26.18;63.39;99739.94;2108852;82;21060;-91
2022/08/20 12:06:26;;;;;;;24.32;17.95;;;;;;;26.23;62.46;99748.08;2111675;82;21076;-88
2022/08/20 12:09:27;;;;;;;20.57;15.95;;;;;;;26.28;62.52;99741.81;2115176;82;21053;-89
2022/08/20 12:12:28;;;;;;;25.82;16.07;;;;;;;26.42;62.08;99740.10;2112868;82;21060;-89
2022/08/20 12:15:30;;;;;;;19.85;16.27;;;;;;;26.57;61.85;99724.26;2094142;83;21068;-88
2022/08/20 12:18:31;;;;;;;24.90;17.02;;;;;;;26.69;61.34;99724.70;2111017;83;21053;-91
2022/08/20 12:21:33;;;;;;;19.42;15.93;;;;;;;26.76;61.06;99720.33;2077628;83;21515;-89
2022/08/20 12:24:35;;;;;;;23.42;16.23;;;;;;;26.87;60.31;99725.95;2123100;82;21117;-88
2022/08/20 12:27:37;;;;;;;21.50;15.45;;;;;;;26.77;60.56;99717.30;2119498;82;21017;-91
2022/08/20 12:30:38;;;;;;;19.82;14.75;;;;;;;26.97;60.65;99723.69;2109985;82;21629;-91
2022/08/20 12:33:40;;;;;;;22.27;14.80;;;;;;;27.20;59.32;99722.15;2118209;82;21541;-90
2022/08/20 12:36:41;;;;;;;18.45;14.47;;;;;;;27.19;59.92;99719.98;2121033;82;21001;-92
2022/08/20 12:39:47;;;;;;;22.07;15.45;;;;;;;27.29;59.43;99717.73;2121136;82;21048;-88
2022/08/20 12:42:49;;;;;;;21.77;14.83;;;;;;;27.27;58.80;99714.47;2085491;84;21586;-89
2022/08/20 12:45:50;;;;;;;23.15;15.80;;;;;;;27.23;59.01;99712.88;2074588;83;21547;-89
2022/08/20 12:48:52;;;;;;;18.50;14.50;;;;;;;27.30;58.52;99708.45;2079329;84;21066;-91
2022/08/20 12:51:53;;;;;;;21.02;14.45;;;;;;;27.34;58.96;99714.96;2090537;84;21136;-89
2022/08/20 12:54:55;;;;;;;21.75;14.70;;;;;;;27.55;58.51;99707.38;2118097;82;21060;-89
2022/08/20 12:58:00;;;;;;;17.87;14.65;;;;;;;27.72;58.41;99707.72;2124759;82;21036;-90
2022/08/20 13:01:02;;;;;;;19.15;13.75;;;;;;;27.90;58.24;99701.27;2074019;84;21251;-89
2022/08/20 13:04:03;;;;;;;19.92;13.65;;;;;;;27.87;57.54;99705.94;2125888;82;21049;-89
2022/08/20 13:07:05;;;;;;;21.02;12.82;;;;;;;27.80;57.68;99694.59;2081832;83;21042;-89
2022/08/20 13:10:10;;;;;;;23.38;11.22;;;;;;;27.86;57.30;99687.41;2081150;84;21647;-89
2022/08/20 13:13:14;;;;;;;24.87;12.47;;;;;;;27.87;56.76;99684.12;2109796;83;21014;-89
2022/08/20 13:16:15;;;;;;;17.98;14.43;;;;;;;28.01;57.03;99688.31;2103528;84;21049;-90
2022/08/20 13:19:16;;;;;;;20.65;12.70;;;;;;;27.97;56.61;99681.84;2106866;83;21053;-91
2022/08/20 13:22:17;;;;;;;17.80;12.33;;;;;;;28.09;56.66;99678.12;2109095;83;21081;-90
2022/08/20 13:25:20;;;;;;;21.68;13.75;;;;;;;28.28;56.79;99676.77;2101920;83;21081;-89
2022/08/20 13:28:21;;;;;;;20.97;13.65;;;;;;;28.34;56.40;99680.48;2117280;83;20997;-89
2022/08/20 13:31:23;;;;;;;21.97;12.20;;;;;;;28.35;56.66;99681.30;2113385;83;21057;-91
2022/08/20 13:34:24;;;;;;;18.45;12.47;;;;;;;28.25;56.37;99679.53;2105218;83;21013;-91
2022/08/20 13:37:28;;;;;;;16.02;11.95;;;;;;;28.20;55.64;99682.33;2121294;83;21478;-91
2022/08/20 13:40:30;;;;;;;26.35;12.93;;;;;;;28.02;55.70;99679.86;2124885;83;21025;-90
2022/08/20 13:43:31;;;;;;;17.37;13.58;;;;;;;27.91;55.82;99675.09;2118303;83;21587;-89
2022/08/20 13:46:32;;;;;;;17.32;12.53;;;;;;;27.88;55.70;99674.31;2119623;83;21018;-89
2022/08/20 13:49:33;;;;;;;21.55;13.35;;;;;;;27.99;55.81;99677.72;2120297;83;21017;-89
2022/08/20 13:52:34;;;;;;;18.07;12.75;;;;;;;27.86;55.29;99670.25;2105226;83;21010;-89
2022/08/20 13:55:36;;;;;;;17.10;12.68;;;;;;;27.88;55.96;99668.86;2107863;84;21022;-89
2022/08/20 13:58:37;;;;;;;15.10;11.68;;;;;;;27.93;55.94;99666.07;2082246;84;21125;-90
2022/08/20 14:01:38;;;;;;;17.77;13.32;;;;;;;27.99;56.12;99665.45;2094135;82;21094;-90
2022/08/20 14:04:40;;;;;;;20.32;12.10;;;;;;;28.01;56.86;99674.13;2123202;82;21033;-88
2022/08/20 14:07:42;;;;;;;16.90;12.25;;;;;;;27.93;55.42;99672.89;2112561;82;21077;-89
2022/08/20 14:10:45;;;;;;;19.12;12.23;;;;;;;27.81;56.12;99676.56;2112813;82;21507;-90
2022/08/20 14:13:46;;;;;;;20.00;11.63;;;;;;;27.84;56.11;99674.62;2112804;82;21421;-90